sensor_id;sensor_type;location;lat;lon;timestamp;P1;durP1;ratioP1;P2;durP2;ratioP2
25049;SDS011;13046;49.814;9.918;2024-01-30T00:02:11;19.83;;;15.68;;
25049;SDS011;13046;49.814;9.918;2024-01-30T00:04:37;21.92;;;16.05;;
25049;SDS011;13046;49.814;9.918;2024-01-30T00:07:03;23.20;;;14.75;;
25049;SDS011;13046;49.814;9.918;2024-01-30T00:09:29;21.30;;;15.20;;
25049;SDS011;13046;49.814;9.918;2024-01-30T00:11:56;19.75;;;15.98;;
25049;SDS011;13046;49.814;9.918;2024-01-30T00:14:22;25.35;;;18.40;;
25049;SDS011;13046;49.814;9.918;2024-01-30T00:16:48;23.17;;;17.33;;
25049;SDS011;13046;49.814;9.918;2024-01-30T00:19:14;21.75;;;14.88;;
25049;SDS011;13046;49.814;9.918;2024-01-30T00:21:40;22.35;;;17.10;;
25049;SDS011;13046;49.814;9.918;2024-01-30T00:24:06;19.30;;;15.63;;
25049;SDS011;13046;49.814;9.918;2024-01-30T00:26:33;20.13;;;14.98;;
25049;SDS011;13046;49.814;9.918;2024-01-30T00:28:59;21.50;;;15.80;;
25049;SDS011;13046;49.814;9.918;2024-01-30T00:31:25;19.52;;;14.60;;
25049;SDS011;13046;49.814;9.918;2024-01-30T00:33:51;21.15;;;15.18;;
25049;SDS011;13046;49.814;9.918;2024-01-30T00:36:17;15.52;;;13.57;;
25049;SDS011;13046;49.814;9.918;2024-01-30T00:38:43;19.13;;;16.30;;
25049;SDS011;13046;49.814;9.918;2024-01-30T00:41:09;20.08;;;14.82;;
25049;SDS011;13046;49.814;9.918;2024-01-30T00:43:36;21.70;;;14.38;;
25049;SDS011;13046;49.814;9.918;2024-01-30T00:46:02;16.90;;;13.68;;
25049;SDS011;13046;49.814;9.918;2024-01-30T00:48:28;16.38;;;13.18;;
25049;SDS011;13046;49.814;9.918;2024-01-30T00:50:54;18.75;;;14.20;;
25049;SDS011;13046;49.814;9.918;2024-01-30T00:53:20;20.23;;;14.23;;
25049;SDS011;13046;49.814;9.918;2024-01-30T00:55:46;19.70;;;14.35;;
25049;SDS011;13046;49.814;9.918;2024-01-30T00:58:13;22.83;;;15.32;;
25049;SDS011;13046;49.814;9.918;2024-01-30T01:00:39;23.92;;;15.52;;
25049;SDS011;13046;49.814;9.918;2024-01-30T01:03:05;17.92;;;13.65;;
25049;SDS011;13046;49.814;9.918;2024-01-30T01:05:31;16.13;;;13.32;;
25049;SDS011;13046;49.814;9.918;2024-01-30T01:07:57;20.88;;;13.43;;
25049;SDS011;13046;49.814;9.918;2024-01-30T01:10:23;20.40;;;13.80;;
25049;SDS011;13046;49.814;9.918;2024-01-30T01:12:49;18.30;;;13.00;;
25049;SDS011;13046;49.814;9.918;2024-01-30T01:15:15;17.67;;;14.52;;
25049;SDS011;13046;49.814;9.918;2024-01-30T01:17:42;18.77;;;14.55;;
25049;SDS011;13046;49.814;9.918;2024-01-30T01:20:08;20.05;;;13.52;;
25049;SDS011;13046;49.814;9.918;2024-01-30T01:22:35;15.63;;;13.18;;
25049;SDS011;13046;49.814;9.918;2024-01-30T01:25:04;18.13;;;14.50;;
25049;SDS011;13046;49.814;9.918;2024-01-30T01:27:33;20.35;;;13.13;;
25049;SDS011;13046;49.814;9.918;2024-01-30T01:30:03;16.25;;;12.90;;
25049;SDS011;13046;49.814;9.918;2024-01-30T01:32:31;18.10;;;13.15;;
25049;SDS011;13046;49.814;9.918;2024-01-30T01:34:57;16.92;;;14.65;;
25049;SDS011;13046;49.814;9.918;2024-01-30T01:37:23;17.55;;;12.98;;
25049;SDS011;13046;49.814;9.918;2024-01-30T01:39:51;18.10;;;13.43;;
25049;SDS011;13046;49.814;9.918;2024-01-30T01:42:18;16.00;;;13.30;;
25049;SDS011;13046;49.814;9.918;2024-01-30T01:44:44;17.05;;;12.63;;
25049;SDS011;13046;49.814;9.918;2024-01-30T01:47:10;19.10;;;13.98;;
25049;SDS011;13046;49.814;9.918;2024-01-30T01:49:36;17.77;;;13.00;;
25049;SDS011;13046;49.814;9.918;2024-01-30T01:52:03;16.98;;;14.82;;
25049;SDS011;13046;49.814;9.918;2024-01-30T01:54:29;16.70;;;13.10;;
25049;SDS011;13046;49.814;9.918;2024-01-30T01:56:55;18.02;;;12.90;;
25049;SDS011;13046;49.814;9.918;2024-01-30T01:59:22;19.75;;;15.88;;
25049;SDS011;13046;49.814;9.918;2024-01-30T02:01:49;18.25;;;13.38;;
25049;SDS011;13046;49.814;9.918;2024-01-30T02:04:16;16.83;;;13.38;;
25049;SDS011;13046;49.814;9.918;2024-01-30T02:06:42;19.77;;;13.52;;
25049;SDS011;13046;49.814;9.918;2024-01-30T02:09:09;21.73;;;13.73;;
25049;SDS011;13046;49.814;9.918;2024-01-30T02:11:35;15.45;;;12.80;;
25049;SDS011;13046;49.814;9.918;2024-01-30T02:14:03;13.73;;;11.27;;
25049;SDS011;13046;49.814;9.918;2024-01-30T02:16:29;14.18;;;12.68;;
25049;SDS011;13046;49.814;9.918;2024-01-30T02:18:55;16.65;;;12.65;;
25049;SDS011;13046;49.814;9.918;2024-01-30T02:21:21;19.20;;;12.75;;
25049;SDS011;13046;49.814;9.918;2024-01-30T02:23:48;18.45;;;13.82;;
25049;SDS011;13046;49.814;9.918;2024-01-30T02:26:14;21.52;;;13.82;;
25049;SDS011;13046;49.814;9.918;2024-01-30T02:28:40;17.50;;;12.05;;
25049;SDS011;13046;49.814;9.918;2024-01-30T02:31:07;13.73;;;12.27;;
25049;SDS011;13046;49.814;9.918;2024-01-30T02:33:33;17.05;;;12.00;;
25049;SDS011;13046;49.814;9.918;2024-01-30T02:35:59;16.98;;;14.00;;
25049;SDS011;13046;49.814;9.918;2024-01-30T02:38:25;16.67;;;13.27;;
25049;SDS011;13046;49.814;9.918;2024-01-30T02:40:52;16.80;;;13.80;;
25049;SDS011;13046;49.814;9.918;2024-01-30T02:43:18;17.95;;;13.18;;
25049;SDS011;13046;49.814;9.918;2024-01-30T02:45:44;18.50;;;13.93;;
25049;SDS011;13046;49.814;9.918;2024-01-30T02:48:10;18.38;;;15.30;;
25049;SDS011;13046;49.814;9.918;2024-01-30T02:50:36;16.27;;;14.10;;
25049;SDS011;13046;49.814;9.918;2024-01-30T02:53:02;17.77;;;14.05;;
25049;SDS011;13046;49.814;9.918;2024-01-30T02:55:29;15.25;;;13.43;;
25049;SDS011;13046;49.814;9.918;2024-01-30T02:57:55;18.48;;;13.50;;
25049;SDS011;13046;49.814;9.918;2024-01-30T03:00:21;16.75;;;12.60;;
25049;SDS011;13046;49.814;9.918;2024-01-30T03:02:47;19.15;;;13.55;;
25049;SDS011;13046;49.814;9.918;2024-01-30T03:05:13;14.70;;;13.02;;
25049;SDS011;13046;49.814;9.918;2024-01-30T03:07:39;15.98;;;13.30;;
25049;SDS011;13046;49.814;9.918;2024-01-30T03:10:05;17.67;;;13.30;;
25049;SDS011;13046;49.814;9.918;2024-01-30T03:12:32;18.50;;;14.60;;
25049;SDS011;13046;49.814;9.918;2024-01-30T03:14:58;17.42;;;13.68;;
25049;SDS011;13046;49.814;9.918;2024-01-30T03:17:24;17.08;;;13.55;;
25049;SDS011;13046;49.814;9.918;2024-01-30T03:19:50;16.17;;;13.13;;
25049;SDS011;13046;49.814;9.918;2024-01-30T03:22:16;18.63;;;12.23;;
25049;SDS011;13046;49.814;9.918;2024-01-30T03:24:43;21.77;;;13.90;;
25049;SDS011;13046;49.814;9.918;2024-01-30T03:27:09;18.80;;;13.98;;
25049;SDS011;13046;49.814;9.918;2024-01-30T03:29:35;17.08;;;13.38;;
25049;SDS011;13046;49.814;9.918;2024-01-30T03:32:01;14.52;;;12.00;;
25049;SDS011;13046;49.814;9.918;2024-01-30T03:34:29;15.13;;;11.85;;
25049;SDS011;13046;49.814;9.918;2024-01-30T03:36:55;15.63;;;11.95;;
25049;SDS011;13046;49.814;9.918;2024-01-30T03:39:21;15.70;;;12.57;;
25049;SDS011;13046;49.814;9.918;2024-01-30T03:41:47;20.42;;;13.02;;
25049;SDS011;13046;49.814;9.918;2024-01-30T03:44:13;15.60;;;11.88;;
25049;SDS011;13046;49.814;9.918;2024-01-30T03:46:39;15.52;;;12.95;;
25049;SDS011;13046;49.814;9.918;2024-01-30T03:49:05;14.60;;;12.07;;
25049;SDS011;13046;49.814;9.918;2024-01-30T03:51:31;15.38;;;13.60;;
25049;SDS011;13046;49.814;9.918;2024-01-30T03:53:57;14.55;;;12.57;;
25049;SDS011;13046;49.814;9.918;2024-01-30T03:56:23;18.35;;;13.50;;
25049;SDS011;13046;49.814;9.918;2024-01-30T03:58:51;14.70;;;12.48;;
25049;SDS011;13046;49.814;9.918;2024-01-30T04:01:17;18.95;;;12.70;;
25049;SDS011;13046;49.814;9.918;2024-01-30T04:03:43;17.42;;;12.88;;
25049;SDS011;13046;49.814;9.918;2024-01-30T04:06:09;19.73;;;12.50;;
25049;SDS011;13046;49.814;9.918;2024-01-30T04:08:35;14.23;;;12.73;;
25049;SDS011;13046;49.814;9.918;2024-01-30T04:11:05;15.32;;;12.15;;
25049;SDS011;13046;49.814;9.918;2024-01-30T04:13:31;14.70;;;12.48;;
25049;SDS011;13046;49.814;9.918;2024-01-30T04:16:01;20.15;;;13.27;;
25049;SDS011;13046;49.814;9.918;2024-01-30T04:18:27;14.02;;;11.57;;
25049;SDS011;13046;49.814;9.918;2024-01-30T04:20:53;15.48;;;13.27;;
25049;SDS011;13046;49.814;9.918;2024-01-30T04:23:20;14.88;;;12.40;;
25049;SDS011;13046;49.814;9.918;2024-01-30T04:25:46;14.20;;;12.80;;
25049;SDS011;13046;49.814;9.918;2024-01-30T04:28:12;16.70;;;13.30;;
25049;SDS011;13046;49.814;9.918;2024-01-30T04:30:38;18.38;;;12.88;;
25049;SDS011;13046;49.814;9.918;2024-01-30T04:33:04;16.60;;;14.23;;
25049;SDS011;13046;49.814;9.918;2024-01-30T04:35:30;19.38;;;14.48;;
25049;SDS011;13046;49.814;9.918;2024-01-30T04:37:57;17.45;;;14.13;;
25049;SDS011;13046;49.814;9.918;2024-01-30T04:40:23;22.77;;;14.75;;
25049;SDS011;13046;49.814;9.918;2024-01-30T04:42:49;22.63;;;15.38;;
25049;SDS011;13046;49.814;9.918;2024-01-30T04:45:15;18.77;;;14.52;;
25049;SDS011;13046;49.814;9.918;2024-01-30T04:47:41;20.05;;;13.35;;
25049;SDS011;13046;49.814;9.918;2024-01-30T04:50:07;18.00;;;13.85;;
25049;SDS011;13046;49.814;9.918;2024-01-30T04:52:34;23.88;;;16.25;;
25049;SDS011;13046;49.814;9.918;2024-01-30T04:55:00;16.30;;;13.02;;
25049;SDS011;13046;49.814;9.918;2024-01-30T04:57:26;19.52;;;13.15;;
25049;SDS011;13046;49.814;9.918;2024-01-30T04:59:52;18.48;;;12.85;;
25049;SDS011;13046;49.814;9.918;2024-01-30T05:02:18;20.10;;;13.38;;
25049;SDS011;13046;49.814;9.918;2024-01-30T05:04:44;21.75;;;14.23;;
25049;SDS011;13046;49.814;9.918;2024-01-30T05:07:11;21.42;;;13.52;;
25049;SDS011;13046;49.814;9.918;2024-01-30T05:09:37;20.38;;;13.40;;
25049;SDS011;13046;49.814;9.918;2024-01-30T05:12:03;20.85;;;12.88;;
25049;SDS011;13046;49.814;9.918;2024-01-30T05:14:29;17.27;;;13.57;;
25049;SDS011;13046;49.814;9.918;2024-01-30T05:16:55;18.67;;;13.50;;
25049;SDS011;13046;49.814;9.918;2024-01-30T05:19:21;21.45;;;14.02;;
25049;SDS011;13046;49.814;9.918;2024-01-30T05:21:48;18.33;;;14.25;;
25049;SDS011;13046;49.814;9.918;2024-01-30T05:24:14;15.20;;;12.60;;
25049;SDS011;13046;49.814;9.918;2024-01-30T05:26:41;19.20;;;14.63;;
25049;SDS011;13046;49.814;9.918;2024-01-30T05:29:07;18.65;;;13.23;;
25049;SDS011;13046;49.814;9.918;2024-01-30T05:31:36;20.35;;;12.32;;
25049;SDS011;13046;49.814;9.918;2024-01-30T05:34:02;20.73;;;15.00;;
25049;SDS011;13046;49.814;9.918;2024-01-30T05:36:28;18.58;;;13.27;;
25049;SDS011;13046;49.814;9.918;2024-01-30T05:38:55;20.65;;;15.10;;
25049;SDS011;13046;49.814;9.918;2024-01-30T05:41:22;22.55;;;16.15;;
25049;SDS011;13046;49.814;9.918;2024-01-30T05:43:48;20.40;;;15.82;;
25049;SDS011;13046;49.814;9.918;2024-01-30T05:46:14;19.00;;;15.27;;
25049;SDS011;13046;49.814;9.918;2024-01-30T05:48:41;23.42;;;16.05;;
25049;SDS011;13046;49.814;9.918;2024-01-30T05:51:07;18.85;;;14.68;;
25049;SDS011;13046;49.814;9.918;2024-01-30T05:53:33;20.58;;;14.77;;
25049;SDS011;13046;49.814;9.918;2024-01-30T05:56:03;22.85;;;15.57;;
25049;SDS011;13046;49.814;9.918;2024-01-30T05:58:29;21.45;;;15.50;;
25049;SDS011;13046;49.814;9.918;2024-01-30T06:00:56;26.23;;;17.40;;
25049;SDS011;13046;49.814;9.918;2024-01-30T06:03:23;21.80;;;16.48;;
25049;SDS011;13046;49.814;9.918;2024-01-30T06:05:49;26.88;;;19.63;;
25049;SDS011;13046;49.814;9.918;2024-01-30T06:08:15;23.55;;;18.45;;
25049;SDS011;13046;49.814;9.918;2024-01-30T06:10:41;31.05;;;20.38;;
25049;SDS011;13046;49.814;9.918;2024-01-30T06:13:08;27.83;;;19.83;;
25049;SDS011;13046;49.814;9.918;2024-01-30T06:15:34;26.48;;;19.75;;
25049;SDS011;13046;49.814;9.918;2024-01-30T06:18:00;21.80;;;17.70;;
25049;SDS011;13046;49.814;9.918;2024-01-30T06:20:26;27.48;;;18.88;;
25049;SDS011;13046;49.814;9.918;2024-01-30T06:22:52;17.98;;;14.88;;
25049;SDS011;13046;49.814;9.918;2024-01-30T06:25:18;20.77;;;14.85;;
25049;SDS011;13046;49.814;9.918;2024-01-30T06:27:44;20.13;;;14.52;;
25049;SDS011;13046;49.814;9.918;2024-01-30T06:30:11;19.38;;;15.38;;
25049;SDS011;13046;49.814;9.918;2024-01-30T06:32:37;22.48;;;15.90;;
25049;SDS011;13046;49.814;9.918;2024-01-30T06:35:03;19.23;;;14.57;;
25049;SDS011;13046;49.814;9.918;2024-01-30T06:37:30;19.15;;;14.82;;
25049;SDS011;13046;49.814;9.918;2024-01-30T06:39:56;18.52;;;14.55;;
25049;SDS011;13046;49.814;9.918;2024-01-30T06:42:22;20.02;;;15.13;;
25049;SDS011;13046;49.814;9.918;2024-01-30T06:44:48;22.45;;;14.90;;
25049;SDS011;13046;49.814;9.918;2024-01-30T06:47:14;15.90;;;13.43;;
25049;SDS011;13046;49.814;9.918;2024-01-30T06:49:41;19.30;;;15.02;;
25049;SDS011;13046;49.814;9.918;2024-01-30T06:52:08;21.48;;;16.77;;
25049;SDS011;13046;49.814;9.918;2024-01-30T06:54:35;20.23;;;14.93;;
25049;SDS011;13046;49.814;9.918;2024-01-30T06:57:02;17.98;;;14.38;;
25049;SDS011;13046;49.814;9.918;2024-01-30T06:59:28;22.25;;;15.95;;
25049;SDS011;13046;49.814;9.918;2024-01-30T07:01:54;24.05;;;18.60;;
25049;SDS011;13046;49.814;9.918;2024-01-30T07:04:20;24.90;;;18.35;;
25049;SDS011;13046;49.814;9.918;2024-01-30T07:06:46;22.35;;;19.85;;
25049;SDS011;13046;49.814;9.918;2024-01-30T07:09:12;23.88;;;16.88;;
25049;SDS011;13046;49.814;9.918;2024-01-30T07:11:38;22.88;;;17.75;;
25049;SDS011;13046;49.814;9.918;2024-01-30T07:14:05;26.95;;;18.77;;
25049;SDS011;13046;49.814;9.918;2024-01-30T07:16:31;21.33;;;17.65;;
25049;SDS011;13046;49.814;9.918;2024-01-30T07:18:57;20.88;;;17.42;;
25049;SDS011;13046;49.814;9.918;2024-01-30T07:21:23;19.95;;;17.45;;
25049;SDS011;13046;49.814;9.918;2024-01-30T07:23:56;23.83;;;18.90;;
25049;SDS011;13046;49.814;9.918;2024-01-30T07:26:22;35.50;;;23.48;;
25049;SDS011;13046;49.814;9.918;2024-01-30T07:28:48;95.68;;;42.53;;
25049;SDS011;13046;49.814;9.918;2024-01-30T07:31:15;62.20;;;34.20;;
25049;SDS011;13046;49.814;9.918;2024-01-30T07:33:41;46.60;;;30.48;;
25049;SDS011;13046;49.814;9.918;2024-01-30T07:36:07;35.92;;;27.88;;
25049;SDS011;13046;49.814;9.918;2024-01-30T07:38:33;30.15;;;22.95;;
25049;SDS011;13046;49.814;9.918;2024-01-30T07:40:59;20.42;;;17.55;;
25049;SDS011;13046;49.814;9.918;2024-01-30T07:43:25;23.88;;;18.63;;
25049;SDS011;13046;49.814;9.918;2024-01-30T07:45:52;27.77;;;18.45;;
25049;SDS011;13046;49.814;9.918;2024-01-30T07:48:18;24.67;;;20.48;;
25049;SDS011;13046;49.814;9.918;2024-01-30T07:50:44;30.55;;;24.00;;
25049;SDS011;13046;49.814;9.918;2024-01-30T07:53:10;24.83;;;19.55;;
25049;SDS011;13046;49.814;9.918;2024-01-30T07:55:36;25.33;;;20.00;;
25049;SDS011;13046;49.814;9.918;2024-01-30T07:58:02;20.75;;;17.73;;
25049;SDS011;13046;49.814;9.918;2024-01-30T08:00:29;18.98;;;15.88;;
25049;SDS011;13046;49.814;9.918;2024-01-30T08:02:56;20.85;;;16.10;;
25049;SDS011;13046;49.814;9.918;2024-01-30T08:05:22;20.92;;;18.50;;
25049;SDS011;13046;49.814;9.918;2024-01-30T08:07:49;22.85;;;18.55;;
25049;SDS011;13046;49.814;9.918;2024-01-30T08:10:15;26.58;;;19.75;;
25049;SDS011;13046;49.814;9.918;2024-01-30T08:12:44;24.45;;;19.65;;
25049;SDS011;13046;49.814;9.918;2024-01-30T08:15:11;22.30;;;18.40;;
25049;SDS011;13046;49.814;9.918;2024-01-30T08:17:38;28.02;;;20.25;;
25049;SDS011;13046;49.814;9.918;2024-01-30T08:20:04;23.85;;;18.48;;
25049;SDS011;13046;49.814;9.918;2024-01-30T08:22:30;37.15;;;21.25;;
25049;SDS011;13046;49.814;9.918;2024-01-30T08:24:56;28.05;;;19.42;;
25049;SDS011;13046;49.814;9.918;2024-01-30T08:27:22;25.60;;;21.30;;
25049;SDS011;13046;49.814;9.918;2024-01-30T08:29:49;28.85;;;21.73;;
25049;SDS011;13046;49.814;9.918;2024-01-30T08:32:15;31.30;;;21.50;;
25049;SDS011;13046;49.814;9.918;2024-01-30T08:34:41;31.20;;;23.27;;
25049;SDS011;13046;49.814;9.918;2024-01-30T08:37:07;30.60;;;24.33;;
25049;SDS011;13046;49.814;9.918;2024-01-30T08:39:33;28.77;;;22.75;;
25049;SDS011;13046;49.814;9.918;2024-01-30T08:42:00;34.13;;;25.77;;
25049;SDS011;13046;49.814;9.918;2024-01-30T08:44:26;33.95;;;25.17;;
25049;SDS011;13046;49.814;9.918;2024-01-30T08:46:52;33.22;;;24.70;;
25049;SDS011;13046;49.814;9.918;2024-01-30T08:49:19;26.33;;;20.40;;
25049;SDS011;13046;49.814;9.918;2024-01-30T08:51:46;26.75;;;22.85;;
25049;SDS011;13046;49.814;9.918;2024-01-30T08:54:12;24.85;;;20.33;;
25049;SDS011;13046;49.814;9.918;2024-01-30T08:56:38;25.48;;;20.67;;
25049;SDS011;13046;49.814;9.918;2024-01-30T08:59:04;25.45;;;21.73;;
25049;SDS011;13046;49.814;9.918;2024-01-30T09:01:30;27.35;;;22.30;;
25049;SDS011;13046;49.814;9.918;2024-01-30T09:03:56;27.45;;;23.77;;
25049;SDS011;13046;49.814;9.918;2024-01-30T09:06:23;29.15;;;22.77;;
25049;SDS011;13046;49.814;9.918;2024-01-30T09:08:53;30.20;;;25.08;;
25049;SDS011;13046;49.814;9.918;2024-01-30T09:11:19;30.27;;;24.65;;
25049;SDS011;13046;49.814;9.918;2024-01-30T09:13:45;32.22;;;27.73;;
25049;SDS011;13046;49.814;9.918;2024-01-30T09:16:11;31.77;;;26.70;;
25049;SDS011;13046;49.814;9.918;2024-01-30T09:18:37;35.10;;;24.92;;
25049;SDS011;13046;49.814;9.918;2024-01-30T09:21:04;32.70;;;29.00;;
25049;SDS011;13046;49.814;9.918;2024-01-30T09:23:30;29.77;;;26.38;;
25049;SDS011;13046;49.814;9.918;2024-01-30T09:25:56;27.73;;;23.92;;
25049;SDS011;13046;49.814;9.918;2024-01-30T09:28:22;29.38;;;23.23;;
25049;SDS011;13046;49.814;9.918;2024-01-30T09:30:48;29.50;;;22.70;;
25049;SDS011;13046;49.814;9.918;2024-01-30T09:33:14;31.27;;;24.10;;
25049;SDS011;13046;49.814;9.918;2024-01-30T09:35:40;29.95;;;24.73;;
25049;SDS011;13046;49.814;9.918;2024-01-30T09:38:07;30.05;;;22.10;;
25049;SDS011;13046;49.814;9.918;2024-01-30T09:40:33;31.70;;;24.55;;
25049;SDS011;13046;49.814;9.918;2024-01-30T09:42:59;29.35;;;24.27;;
25049;SDS011;13046;49.814;9.918;2024-01-30T09:45:25;28.30;;;22.92;;
25049;SDS011;13046;49.814;9.918;2024-01-30T09:47:52;30.40;;;22.55;;
25049;SDS011;13046;49.814;9.918;2024-01-30T09:50:18;31.60;;;23.70;;
25049;SDS011;13046;49.814;9.918;2024-01-30T09:52:45;30.55;;;25.77;;
25049;SDS011;13046;49.814;9.918;2024-01-30T09:55:11;31.10;;;25.35;;
25049;SDS011;13046;49.814;9.918;2024-01-30T09:57:37;31.70;;;25.50;;
25049;SDS011;13046;49.814;9.918;2024-01-30T10:00:04;29.80;;;26.33;;
25049;SDS011;13046;49.814;9.918;2024-01-30T10:02:40;29.58;;;25.33;;
25049;SDS011;13046;49.814;9.918;2024-01-30T10:05:07;38.30;;;28.73;;
25049;SDS011;13046;49.814;9.918;2024-01-30T10:07:33;33.85;;;25.33;;
25049;SDS011;13046;49.814;9.918;2024-01-30T10:09:59;30.95;;;25.95;;
25049;SDS011;13046;49.814;9.918;2024-01-30T10:12:26;31.92;;;27.25;;
25049;SDS011;13046;49.814;9.918;2024-01-30T10:14:52;34.28;;;28.85;;
25049;SDS011;13046;49.814;9.918;2024-01-30T10:17:19;38.58;;;31.05;;
25049;SDS011;13046;49.814;9.918;2024-01-30T10:19:46;36.13;;;30.10;;
25049;SDS011;13046;49.814;9.918;2024-01-30T10:22:12;45.22;;;34.03;;
25049;SDS011;13046;49.814;9.918;2024-01-30T10:24:39;41.22;;;32.90;;
25049;SDS011;13046;49.814;9.918;2024-01-30T10:27:05;41.22;;;32.03;;
25049;SDS011;13046;49.814;9.918;2024-01-30T10:29:32;43.72;;;32.47;;
25049;SDS011;13046;49.814;9.918;2024-01-30T10:32:01;40.15;;;31.02;;
25049;SDS011;13046;49.814;9.918;2024-01-30T10:34:30;36.63;;;30.30;;
25049;SDS011;13046;49.814;9.918;2024-01-30T10:37:04;37.55;;;30.58;;
25049;SDS011;13046;49.814;9.918;2024-01-30T10:39:33;37.72;;;30.17;;
25049;SDS011;13046;49.814;9.918;2024-01-30T10:42:02;36.50;;;30.70;;
25049;SDS011;13046;49.814;9.918;2024-01-30T10:44:30;39.70;;;32.92;;
25049;SDS011;13046;49.814;9.918;2024-01-30T10:47:00;39.55;;;30.83;;
25049;SDS011;13046;49.814;9.918;2024-01-30T10:49:26;38.17;;;29.92;;
25049;SDS011;13046;49.814;9.918;2024-01-30T10:51:53;38.95;;;31.52;;
25049;SDS011;13046;49.814;9.918;2024-01-30T10:54:19;40.38;;;30.10;;
25049;SDS011;13046;49.814;9.918;2024-01-30T10:56:46;38.30;;;31.00;;
25049;SDS011;13046;49.814;9.918;2024-01-30T10:59:12;41.47;;;32.70;;
25049;SDS011;13046;49.814;9.918;2024-01-30T11:01:39;37.17;;;30.83;;
25049;SDS011;13046;49.814;9.918;2024-01-30T11:04:05;40.25;;;34.17;;
25049;SDS011;13046;49.814;9.918;2024-01-30T11:06:32;37.72;;;32.65;;
25049;SDS011;13046;49.814;9.918;2024-01-30T11:11:48;39.00;;;29.98;;
25049;SDS011;13046;49.814;9.918;2024-01-30T11:14:14;40.75;;;30.67;;
25049;SDS011;13046;49.814;9.918;2024-01-30T11:16:41;43.30;;;32.38;;
25049;SDS011;13046;49.814;9.918;2024-01-30T11:19:10;40.65;;;31.98;;
25049;SDS011;13046;49.814;9.918;2024-01-30T11:21:43;37.47;;;30.60;;
25049;SDS011;13046;49.814;9.918;2024-01-30T11:24:09;44.55;;;31.25;;
25049;SDS011;13046;49.814;9.918;2024-01-30T11:26:35;34.45;;;30.60;;
25049;SDS011;13046;49.814;9.918;2024-01-30T11:29:07;44.95;;;32.72;;
25049;SDS011;13046;49.814;9.918;2024-01-30T11:31:33;43.58;;;32.42;;
25049;SDS011;13046;49.814;9.918;2024-01-30T11:33:59;44.78;;;32.63;;
25049;SDS011;13046;49.814;9.918;2024-01-30T11:36:26;61.35;;;32.92;;
25049;SDS011;13046;49.814;9.918;2024-01-30T11:38:52;45.15;;;32.95;;
25049;SDS011;13046;49.814;9.918;2024-01-30T11:41:18;37.70;;;32.03;;
25049;SDS011;13046;49.814;9.918;2024-01-30T11:43:51;36.17;;;32.30;;
25049;SDS011;13046;49.814;9.918;2024-01-30T11:46:18;46.10;;;31.33;;
25049;SDS011;13046;49.814;9.918;2024-01-30T11:48:44;40.30;;;32.90;;
25049;SDS011;13046;49.814;9.918;2024-01-30T11:51:11;40.33;;;33.58;;
25049;SDS011;13046;49.814;9.918;2024-01-30T11:53:37;40.60;;;34.35;;
25049;SDS011;13046;49.814;9.918;2024-01-30T11:56:05;92.57;;;39.53;;
25049;SDS011;13046;49.814;9.918;2024-01-30T11:58:32;38.53;;;31.63;;
25049;SDS011;13046;49.814;9.918;2024-01-30T12:00:58;37.65;;;30.08;;
25049;SDS011;13046;49.814;9.918;2024-01-30T12:03:25;42.33;;;32.88;;
25049;SDS011;13046;49.814;9.918;2024-01-30T12:05:54;34.60;;;30.83;;
25049;SDS011;13046;49.814;9.918;2024-01-30T12:08:21;38.03;;;31.92;;
25049;SDS011;13046;49.814;9.918;2024-01-30T12:10:54;43.65;;;34.72;;
25049;SDS011;13046;49.814;9.918;2024-01-30T12:13:21;40.03;;;32.17;;
25049;SDS011;13046;49.814;9.918;2024-01-30T12:15:47;40.20;;;33.15;;
25049;SDS011;13046;49.814;9.918;2024-01-30T12:18:13;43.58;;;33.35;;
25049;SDS011;13046;49.814;9.918;2024-01-30T12:20:39;42.40;;;31.73;;
25049;SDS011;13046;49.814;9.918;2024-01-30T12:23:05;36.90;;;32.28;;
25049;SDS011;13046;49.814;9.918;2024-01-30T12:25:31;39.88;;;33.75;;
25049;SDS011;13046;49.814;9.918;2024-01-30T12:27:58;41.17;;;33.58;;
25049;SDS011;13046;49.814;9.918;2024-01-30T12:30:24;48.80;;;34.92;;
25049;SDS011;13046;49.814;9.918;2024-01-30T12:32:50;34.97;;;30.88;;
25049;SDS011;13046;49.814;9.918;2024-01-30T12:35:17;38.10;;;31.88;;
25049;SDS011;13046;49.814;9.918;2024-01-30T12:37:44;44.85;;;32.20;;
25049;SDS011;13046;49.814;9.918;2024-01-30T12:40:11;41.20;;;31.42;;
25049;SDS011;13046;49.814;9.918;2024-01-30T12:42:40;39.70;;;31.05;;
25049;SDS011;13046;49.814;9.918;2024-01-30T12:45:08;31.80;;;28.45;;
25049;SDS011;13046;49.814;9.918;2024-01-30T12:47:34;34.10;;;29.80;;
25049;SDS011;13046;49.814;9.918;2024-01-30T12:50:00;37.55;;;31.70;;
25049;SDS011;13046;49.814;9.918;2024-01-30T12:52:26;38.40;;;30.80;;
25049;SDS011;13046;49.814;9.918;2024-01-30T12:54:53;36.70;;;30.55;;
25049;SDS011;13046;49.814;9.918;2024-01-30T12:57:19;39.10;;;31.92;;
25049;SDS011;13046;49.814;9.918;2024-01-30T12:59:45;47.45;;;31.73;;
25049;SDS011;13046;49.814;9.918;2024-01-30T13:02:12;37.17;;;30.48;;
25049;SDS011;13046;49.814;9.918;2024-01-30T13:04:39;36.95;;;31.58;;
25049;SDS011;13046;49.814;9.918;2024-01-30T13:07:05;35.15;;;29.25;;
25049;SDS011;13046;49.814;9.918;2024-01-30T13:09:31;40.22;;;30.65;;
25049;SDS011;13046;49.814;9.918;2024-01-30T13:11:58;41.45;;;30.15;;
25049;SDS011;13046;49.814;9.918;2024-01-30T13:14:25;44.33;;;32.00;;
25049;SDS011;13046;49.814;9.918;2024-01-30T13:16:51;41.53;;;33.33;;
25049;SDS011;13046;49.814;9.918;2024-01-30T13:19:17;41.67;;;33.25;;
25049;SDS011;13046;49.814;9.918;2024-01-30T13:21:43;41.65;;;31.05;;
25049;SDS011;13046;49.814;9.918;2024-01-30T13:24:09;43.40;;;33.75;;
25049;SDS011;13046;49.814;9.918;2024-01-30T13:26:36;51.67;;;39.05;;
25049;SDS011;13046;49.814;9.918;2024-01-30T13:29:02;52.33;;;38.95;;
25049;SDS011;13046;49.814;9.918;2024-01-30T13:31:28;47.75;;;36.60;;
25049;SDS011;13046;49.814;9.918;2024-01-30T13:33:56;45.42;;;33.55;;
25049;SDS011;13046;49.814;9.918;2024-01-30T13:36:22;57.28;;;41.08;;
25049;SDS011;13046;49.814;9.918;2024-01-30T13:38:48;64.75;;;48.47;;
25049;SDS011;13046;49.814;9.918;2024-01-30T13:41:14;51.53;;;39.63;;
25049;SDS011;13046;49.814;9.918;2024-01-30T13:43:43;51.08;;;38.60;;
25049;SDS011;13046;49.814;9.918;2024-01-30T13:46:09;50.55;;;38.63;;
25049;SDS011;13046;49.814;9.918;2024-01-30T13:48:36;48.15;;;37.25;;
25049;SDS011;13046;49.814;9.918;2024-01-30T13:51:02;45.53;;;35.75;;
25049;SDS011;13046;49.814;9.918;2024-01-30T13:53:28;46.03;;;35.38;;
25049;SDS011;13046;49.814;9.918;2024-01-30T13:55:54;45.13;;;33.75;;
25049;SDS011;13046;49.814;9.918;2024-01-30T13:58:20;47.25;;;35.63;;
25049;SDS011;13046;49.814;9.918;2024-01-30T14:00:46;47.28;;;35.38;;
25049;SDS011;13046;49.814;9.918;2024-01-30T14:03:12;45.30;;;35.10;;
25049;SDS011;13046;49.814;9.918;2024-01-30T14:05:38;44.47;;;32.80;;
25049;SDS011;13046;49.814;9.918;2024-01-30T14:08:05;41.67;;;33.92;;
25049;SDS011;13046;49.814;9.918;2024-01-30T14:10:33;42.80;;;33.42;;
25049;SDS011;13046;49.814;9.918;2024-01-30T14:12:59;46.78;;;39.13;;
25049;SDS011;13046;49.814;9.918;2024-01-30T14:15:25;50.13;;;39.30;;
25049;SDS011;13046;49.814;9.918;2024-01-30T14:17:52;43.47;;;37.58;;
25049;SDS011;13046;49.814;9.918;2024-01-30T14:20:18;48.55;;;38.30;;